createdAt,value
2023-02-03T00:00:33.955Z,71.50
2023-02-03T00:03:00.463Z,71.50
2023-02-03T00:05:26.963Z,71.40
2023-02-03T00:07:53.436Z,71.40
2023-02-03T00:10:19.904Z,71.30
2023-02-03T00:12:46.400Z,71.40
2023-02-03T00:15:12.861Z,71.40
2023-02-03T00:17:39.328Z,71.50
2023-02-03T00:20:05.792Z,71.40
2023-02-03T00:22:32.271Z,71.50
2023-02-03T00:24:58.739Z,71.40
2023-02-03T00:27:25.215Z,71.30
2023-02-03T00:29:51.708Z,71.40
2023-02-03T00:32:18.314Z,71.40
2023-02-03T00:34:44.899Z,71.40
2023-02-03T00:37:11.371Z,71.50
2023-02-03T00:39:37.855Z,71.50
2023-02-03T00:42:04.336Z,71.50
2023-02-03T00:44:30.802Z,71.50
2023-02-03T00:46:57.287Z,71.50
2023-02-03T00:49:23.761Z,71.50
2023-02-03T00:51:50.241Z,71.40
2023-02-03T00:54:16.721Z,71.50
2023-02-03T00:56:43.190Z,71.50
2023-02-03T00:59:09.663Z,71.50
2023-02-03T01:01:36.181Z,71.40
2023-02-03T01:04:02.702Z,71.50
2023-02-03T01:06:29.209Z,71.30
2023-02-03T01:08:55.671Z,71.50
2023-02-03T01:11:22.160Z,71.50
2023-02-03T01:13:48.636Z,71.60
2023-02-03T01:16:15.187Z,71.50
2023-02-03T01:18:41.683Z,71.40
2023-02-03T01:21:08.193Z,71.50
2023-02-03T01:23:34.665Z,71.60
2023-02-03T01:26:01.161Z,71.60
2023-02-03T01:28:27.636Z,71.40
2023-02-03T01:30:54.220Z,71.70
2023-02-03T01:33:20.769Z,71.60
2023-02-03T01:35:47.264Z,71.60
2023-02-03T01:38:13.743Z,71.60
2023-02-03T01:40:40.233Z,71.50
2023-02-03T01:43:06.709Z,71.70
2023-02-03T01:45:33.198Z,71.70
2023-02-03T01:47:59.673Z,71.70
2023-02-03T01:50:26.465Z,71.60
2023-02-03T01:52:53.215Z,71.60
2023-02-03T01:55:19.689Z,71.70
2023-02-03T01:57:46.177Z,71.70
2023-02-03T02:00:12.663Z,71.70
2023-02-03T02:02:39.180Z,71.70
2023-02-03T02:05:05.671Z,71.80
2023-02-03T02:07:32.183Z,71.80
2023-02-03T02:09:58.662Z,71.80
2023-02-03T02:12:25.140Z,71.70
2023-02-03T02:14:51.618Z,71.70
2023-02-03T02:17:18.101Z,71.70
2023-02-03T02:19:44.586Z,71.80
2023-02-03T02:22:11.046Z,71.70
2023-02-03T02:24:37.523Z,71.70
2023-02-03T02:27:03.995Z,71.60
2023-02-03T02:29:30.482Z,71.70
2023-02-03T02:31:56.986Z,71.70
2023-02-03T02:34:23.493Z,71.70
2023-02-03T02:36:49.979Z,71.70
2023-02-03T02:39:16.468Z,71.70
2023-02-03T02:41:42.955Z,71.70
2023-02-03T02:44:09.448Z,71.70
2023-02-03T02:46:41.270Z,71.70
2023-02-03T02:49:07.760Z,71.80
2023-02-03T02:51:34.269Z,71.80
2023-02-03T02:54:00.742Z,71.80
2023-02-03T02:56:27.248Z,71.90
2023-02-03T02:58:53.737Z,71.80
2023-02-03T03:01:20.323Z,71.80
2023-02-03T03:03:46.833Z,71.80
2023-02-03T03:06:13.363Z,71.80
2023-02-03T03:08:39.843Z,71.80
2023-02-03T03:11:06.351Z,71.70
2023-02-03T03:13:32.828Z,71.80
2023-02-03T03:15:59.378Z,71.80
2023-02-03T03:18:25.873Z,71.90
2023-02-03T03:20:52.384Z,71.90
2023-02-03T03:23:18.939Z,71.80
2023-02-03T03:25:45.457Z,71.80
2023-02-03T03:28:11.975Z,71.80
2023-02-03T03:30:38.558Z,71.90
2023-02-03T03:33:05.049Z,71.90
2023-02-03T03:35:31.523Z,71.90
2023-02-03T03:37:57.998Z,71.80
2023-02-03T03:40:24.779Z,71.80
2023-02-03T03:42:53.276Z,71.70
2023-02-03T03:45:19.753Z,71.60
2023-02-03T03:50:36.997Z,71.70
2023-02-03T03:53:03.489Z,71.70
2023-02-03T03:55:29.964Z,71.80
2023-02-03T03:57:56.434Z,71.80
2023-02-03T04:00:22.903Z,71.80
2023-02-03T04:02:49.438Z,71.70
2023-02-03T04:05:15.976Z,71.70
2023-02-03T04:07:42.486Z,71.60
2023-02-03T04:10:08.970Z,71.60
2023-02-03T04:12:35.445Z,71.60
2023-02-03T04:15:01.892Z,71.70
2023-02-03T04:17:28.370Z,71.60
2023-02-03T04:19:54.863Z,71.60
2023-02-03T04:22:21.282Z,71.70
2023-02-03T04:24:47.756Z,71.60
2023-02-03T04:27:14.239Z,71.60
2023-02-03T04:29:40.706Z,71.60
2023-02-03T04:32:07.260Z,71.60
2023-02-03T04:34:33.739Z,71.60
2023-02-03T04:37:00.240Z,71.60
2023-02-03T04:39:26.713Z,71.50
2023-02-03T04:41:53.206Z,71.50
2023-02-03T04:44:19.691Z,71.60
2023-02-03T04:46:46.243Z,71.60
2023-02-03T04:49:12.721Z,71.60
2023-02-03T04:51:39.217Z,71.60
2023-02-03T04:54:05.677Z,71.60
2023-02-03T04:56:32.163Z,71.60
2023-02-03T04:58:58.648Z,71.60
2023-02-03T05:01:25.263Z,71.50
2023-02-03T05:03:51.790Z,71.50
2023-02-03T05:06:18.304Z,71.60
2023-02-03T05:08:44.819Z,71.50
2023-02-03T05:11:11.313Z,71.60
2023-02-03T05:16:29.043Z,71.50
2023-02-03T05:18:55.594Z,71.60
2023-02-03T05:21:22.053Z,71.60
2023-02-03T05:23:48.529Z,71.70
2023-02-03T05:26:15.009Z,71.60
2023-02-03T05:28:41.486Z,71.60
2023-02-03T05:31:07.971Z,71.60
2023-02-03T05:33:34.491Z,71.60
2023-02-03T05:36:01.067Z,71.60
2023-02-03T05:38:27.547Z,71.50
2023-02-03T05:40:54.094Z,71.60
2023-02-03T05:43:23.385Z,71.60
2023-02-03T05:45:49.888Z,71.60
2023-02-03T05:48:16.369Z,71.60
2023-02-03T05:50:42.848Z,71.60
2023-02-03T05:53:09.320Z,71.50
2023-02-03T05:55:35.824Z,71.60
2023-02-03T05:58:02.298Z,71.60
2023-02-03T06:00:29.113Z,71.50
2023-02-03T06:02:55.751Z,71.50
2023-02-03T06:08:06.207Z,71.50
2023-02-03T06:10:32.694Z,71.60
2023-02-03T06:12:59.169Z,71.50
2023-02-03T06:15:25.641Z,71.50
2023-02-03T06:17:52.119Z,71.40
2023-02-03T06:20:18.588Z,71.50
2023-02-03T06:22:45.067Z,71.50
2023-02-03T06:25:13.193Z,71.50
2023-02-03T06:27:39.814Z,71.40
2023-02-03T06:30:11.567Z,71.50
2023-02-03T06:32:38.072Z,71.50
2023-02-03T06:35:05.436Z,71.40
2023-02-03T06:37:31.922Z,71.50
2023-02-03T06:39:58.398Z,71.50
2023-02-03T06:42:24.945Z,71.50
2023-02-03T06:44:51.588Z,71.40
2023-02-03T06:47:18.061Z,71.50
2023-02-03T06:49:44.547Z,71.50
2023-02-03T06:52:11.016Z,71.50
2023-02-03T06:54:37.500Z,71.50
2023-02-03T06:57:03.991Z,71.50
2023-02-03T06:59:30.479Z,71.30
2023-02-03T07:01:56.935Z,71.50
2023-02-03T07:04:23.418Z,71.40
2023-02-03T07:06:49.917Z,71.40
2023-02-03T07:09:16.399Z,71.40
2023-02-03T07:11:42.884Z,71.50
2023-02-03T07:14:09.354Z,71.50
2023-02-03T07:16:35.826Z,71.50
2023-02-03T07:19:02.293Z,71.40
2023-02-03T07:21:28.773Z,71.50
2023-02-03T07:23:55.245Z,71.50
2023-02-03T07:26:21.728Z,71.50
2023-02-03T07:28:48.232Z,71.50
2023-02-03T07:31:14.809Z,71.50
2023-02-03T07:33:41.355Z,71.50
2023-02-03T07:36:07.850Z,71.60
2023-02-03T07:38:34.328Z,71.60
2023-02-03T07:41:00.802Z,71.60
2023-02-03T07:43:27.285Z,71.60
2023-02-03T07:45:53.754Z,71.50
2023-02-03T07:48:20.258Z,71.60
2023-02-03T07:50:46.730Z,71.60
2023-02-03T07:53:13.209Z,71.40
2023-02-03T07:55:39.702Z,71.70
2023-02-03T07:58:11.484Z,71.60
2023-02-03T08:00:37.950Z,71.60
2023-02-03T08:03:04.470Z,71.60
2023-02-03T08:05:30.935Z,71.70
2023-02-03T08:07:57.411Z,71.50
2023-02-03T08:10:29.826Z,71.70
2023-02-03T08:12:56.663Z,71.70
2023-02-03T08:15:23.157Z,71.80
2023-02-03T08:17:49.652Z,71.70
2023-02-03T08:20:16.148Z,71.60
2023-02-03T08:22:42.628Z,71.60
2023-02-03T08:25:09.129Z,71.70
2023-02-03T08:27:35.605Z,71.70
2023-02-03T08:30:02.083Z,71.70
2023-02-03T08:32:28.565Z,71.70
2023-02-03T08:34:55.044Z,71.70
2023-02-03T08:37:21.533Z,71.70
2023-02-03T08:39:48.013Z,71.70
2023-02-03T08:42:14.498Z,71.70
2023-02-03T08:44:40.990Z,71.60
2023-02-03T08:47:07.483Z,71.70
2023-02-03T08:49:33.955Z,71.60
2023-02-03T08:52:00.428Z,71.60
2023-02-03T08:54:26.919Z,71.60
2023-02-03T08:56:53.386Z,71.60
2023-02-03T08:59:19.853Z,71.60
2023-02-03T09:01:46.334Z,71.70
2023-02-03T09:04:12.853Z,71.60
2023-02-03T09:06:39.325Z,71.60
2023-02-03T09:09:05.805Z,71.60
2023-02-03T09:11:32.306Z,71.50
2023-02-03T09:13:58.790Z,71.60
2023-02-03T09:16:25.327Z,71.50
2023-02-03T09:18:51.806Z,71.50
2023-02-03T09:21:32.282Z,71.60
2023-02-03T09:24:02.573Z,71.50
2023-02-03T09:26:29.064Z,71.60
2023-02-03T09:28:55.543Z,71.50
2023-02-03T09:31:22.033Z,71.60
2023-02-03T09:33:48.513Z,71.50
2023-02-03T09:36:14.988Z,71.50
2023-02-03T09:38:41.473Z,71.50
2023-02-03T09:41:11.715Z,71.60
2023-02-03T09:43:38.639Z,71.70
2023-02-03T09:46:05.180Z,71.70
2023-02-03T09:48:31.708Z,71.80
2023-02-03T09:50:58.192Z,71.70
2023-02-03T09:53:24.658Z,71.70
2023-02-03T09:55:51.152Z,71.80
2023-02-03T09:58:17.609Z,71.70
2023-02-03T10:00:44.049Z,71.70
2023-02-03T10:03:11.540Z,71.80
2023-02-03T10:05:38.017Z,71.70
2023-02-03T10:08:04.503Z,71.70
2023-02-03T10:10:31.003Z,71.70
2023-02-03T10:12:57.480Z,71.70
2023-02-03T10:15:23.969Z,71.80
2023-02-03T10:17:50.448Z,71.80
2023-02-03T10:20:16.925Z,71.80
2023-02-03T10:22:43.411Z,71.80
2023-02-03T10:25:09.891Z,71.90
2023-02-03T10:27:36.416Z,71.90
2023-02-03T10:30:05.598Z,71.90
2023-02-03T10:32:32.091Z,71.90
2023-02-03T10:34:58.562Z,71.90
2023-02-03T10:37:25.046Z,71.70
2023-02-03T10:39:51.548Z,72.00
2023-02-03T10:42:18.037Z,72.10
2023-02-03T10:44:44.510Z,72.00
2023-02-03T10:47:11.002Z,72.00
2023-02-03T10:49:37.475Z,72.10
2023-02-03T10:52:05.630Z,72.10
2023-02-03T10:54:32.177Z,72.10
2023-02-03T10:56:58.730Z,72.20
2023-02-03T10:59:25.212Z,72.20
2023-02-03T11:01:51.717Z,72.20
2023-02-03T11:04:18.196Z,72.10
2023-02-03T11:06:44.680Z,72.10
2023-02-03T11:09:11.151Z,72.30
2023-02-03T11:11:37.617Z,72.30
2023-02-03T11:14:04.091Z,72.20
2023-02-03T11:16:30.577Z,72.30
2023-02-03T11:18:57.099Z,72.30
2023-02-03T11:21:23.622Z,72.30
2023-02-03T11:23:50.106Z,72.30
2023-02-03T11:26:16.574Z,72.50
2023-02-03T11:28:43.052Z,72.60
2023-02-03T11:31:09.663Z,72.60
2023-02-03T11:33:36.228Z,72.60
2023-02-03T11:36:02.752Z,72.60
2023-02-03T11:38:29.238Z,72.70
2023-02-03T11:40:55.807Z,72.70
2023-02-03T11:43:22.285Z,72.70
2023-02-03T11:45:48.766Z,72.80
2023-02-03T11:48:15.245Z,72.70
2023-02-03T11:50:41.722Z,72.70
2023-02-03T11:53:08.202Z,72.80
2023-02-03T11:55:34.689Z,72.80
2023-02-03T11:58:01.191Z,72.80
2023-02-03T12:00:27.925Z,72.80
2023-02-03T12:02:54.638Z,72.90
2023-02-03T12:05:21.137Z,73.10
2023-02-03T12:07:47.630Z,73.20
2023-02-03T12:10:14.112Z,73.10
2023-02-03T12:12:40.578Z,73.00
2023-02-03T12:15:07.047Z,73.10
2023-02-03T12:17:33.562Z,73.10
2023-02-03T12:20:00.049Z,73.10
2023-02-03T12:22:26.521Z,73.00
2023-02-03T12:24:53.012Z,73.10
2023-02-03T12:27:19.480Z,73.10
2023-02-03T12:29:45.962Z,73.10
2023-02-03T12:32:12.477Z,73.10
2023-02-03T12:34:39.006Z,73.10
2023-02-03T12:37:05.485Z,73.10
2023-02-03T12:39:31.954Z,73.00
2023-02-03T12:41:58.452Z,73.10
2023-02-03T12:44:24.923Z,73.10
2023-02-03T12:46:51.423Z,73.00
2023-02-03T12:49:23.721Z,73.10
2023-02-03T12:51:50.193Z,73.20
2023-02-03T12:54:16.664Z,73.30
2023-02-03T12:56:43.142Z,73.20
2023-02-03T12:59:09.624Z,73.20
2023-02-03T13:01:41.972Z,73.20
2023-02-03T13:04:08.491Z,73.30
2023-02-03T13:06:34.984Z,73.30
2023-02-03T13:09:01.459Z,73.30
2023-02-03T13:11:27.938Z,73.30
2023-02-03T13:13:54.408Z,73.20
2023-02-03T13:16:20.936Z,73.20
2023-02-03T13:18:47.458Z,73.30
2023-02-03T13:21:13.945Z,73.40
2023-02-03T13:23:41.760Z,73.30
2023-02-03T13:26:08.236Z,73.20
2023-02-03T13:28:34.706Z,73.30
2023-02-03T13:31:01.257Z,73.40
2023-02-03T13:33:29.693Z,73.40
2023-02-03T13:35:56.163Z,73.40
2023-02-03T13:38:22.641Z,73.40
2023-02-03T13:40:49.108Z,73.50
2023-02-03T13:43:23.022Z,73.30
2023-02-03T13:45:58.705Z,73.50
2023-02-03T13:48:25.204Z,73.40
2023-02-03T13:50:53.760Z,73.30
2023-02-03T13:53:20.230Z,73.20
2023-02-03T13:55:46.732Z,73.30
2023-02-03T13:58:13.211Z,73.20
2023-02-03T14:00:39.688Z,73.10
2023-02-03T14:03:06.171Z,73.10
2023-02-03T14:05:32.661Z,73.00
2023-02-03T14:07:59.138Z,73.10
2023-02-03T14:10:25.655Z,72.90
2023-02-03T14:12:52.125Z,73.00
2023-02-03T14:15:18.612Z,72.90
2023-02-03T14:17:45.095Z,73.00
2023-02-03T14:20:11.588Z,73.00
2023-02-03T14:22:38.106Z,73.00
2023-02-03T14:25:04.613Z,73.10
2023-02-03T14:27:31.077Z,72.90
2023-02-03T14:29:57.558Z,73.00
2023-02-03T14:32:24.824Z,73.00
2023-02-03T14:34:51.296Z,73.00
2023-02-03T14:37:17.774Z,73.00
2023-02-03T14:39:44.304Z,72.90
2023-02-03T14:42:10.776Z,72.90
2023-02-03T14:44:37.277Z,72.90
2023-02-03T14:47:03.772Z,72.90
2023-02-03T14:49:30.258Z,72.90
2023-02-03T14:51:56.738Z,72.80
2023-02-03T14:54:23.215Z,72.90
2023-02-03T14:56:50.801Z,72.80
2023-02-03T14:59:17.268Z,72.80
2023-02-03T15:01:43.855Z,72.80
2023-02-03T15:04:10.361Z,72.80
2023-02-03T15:06:36.839Z,72.80
2023-02-03T15:09:03.308Z,72.70
2023-02-03T15:11:29.780Z,72.70
2023-02-03T15:13:56.260Z,72.70
2023-02-03T15:16:22.795Z,72.70
2023-02-03T15:18:49.336Z,72.70
2023-02-03T15:21:15.801Z,72.70
2023-02-03T15:23:42.254Z,72.70
2023-02-03T15:26:08.717Z,72.70
2023-02-03T15:28:35.185Z,72.70
2023-02-03T15:31:01.790Z,72.70
2023-02-03T15:33:28.294Z,72.70
2023-02-03T15:35:54.791Z,72.60
2023-02-03T15:38:21.256Z,72.60
2023-02-03T15:40:47.754Z,72.50
2023-02-03T15:43:14.220Z,72.50
2023-02-03T15:45:40.718Z,72.50
2023-02-03T15:48:07.193Z,72.50
2023-02-03T15:50:33.670Z,72.50
2023-02-03T15:53:00.141Z,72.50
2023-02-03T15:55:26.639Z,72.40
2023-02-03T15:57:53.108Z,72.40
2023-02-03T16:00:19.572Z,72.40
2023-02-03T16:02:46.261Z,72.50
2023-02-03T16:05:12.801Z,72.40
2023-02-03T16:07:39.292Z,72.40
2023-02-03T16:10:05.751Z,72.40
2023-02-03T16:12:32.235Z,72.40
2023-02-03T16:14:58.754Z,72.40
2023-02-03T16:17:25.239Z,72.40
2023-02-03T16:19:51.752Z,72.40
2023-02-03T16:22:23.898Z,72.40
2023-02-03T16:24:50.359Z,72.30
2023-02-03T16:27:16.834Z,72.30
2023-02-03T16:29:43.290Z,72.40
2023-02-03T16:32:09.850Z,72.40
2023-02-03T16:34:36.376Z,72.40
2023-02-03T16:37:02.868Z,72.30
2023-02-03T16:39:29.346Z,72.30
2023-02-03T16:41:56.173Z,72.30
2023-02-03T16:44:22.688Z,72.20
2023-02-03T16:46:49.160Z,72.20
2023-02-03T16:49:15.637Z,72.20
2023-02-03T16:51:42.140Z,72.20
2023-02-03T16:54:08.611Z,72.10
2023-02-03T16:56:35.119Z,72.00
2023-02-03T16:59:01.578Z,72.10
2023-02-03T17:01:28.062Z,72.10
2023-02-03T17:03:54.556Z,72.00
2023-02-03T17:06:21.031Z,72.00
2023-02-03T17:08:47.534Z,71.90
2023-02-03T17:11:14.019Z,72.00
2023-02-03T17:13:40.503Z,72.00
2023-02-03T17:16:06.972Z,72.00
2023-02-03T17:18:33.462Z,71.90
2023-02-03T17:20:59.949Z,71.90
2023-02-03T17:23:26.423Z,71.70
2023-02-03T17:25:52.891Z,71.80
2023-02-03T17:28:19.446Z,71.80
2023-02-03T17:30:46.096Z,71.70
2023-02-03T17:33:12.595Z,71.70
2023-02-03T17:35:39.087Z,71.70
2023-02-03T17:38:05.583Z,71.70
2023-02-03T17:54:13.124Z,71.50
2023-02-03T17:56:39.615Z,71.50
2023-02-03T17:59:06.094Z,71.50
2023-02-03T18:01:32.612Z,71.50
2023-02-03T18:03:59.185Z,71.40
2023-02-03T18:06:25.642Z,71.40
2023-02-03T18:08:52.105Z,71.40
2023-02-03T18:11:18.605Z,71.30
2023-02-03T18:13:45.074Z,71.30
2023-02-03T18:16:11.537Z,71.30
2023-02-03T18:18:38.021Z,71.30
2023-02-03T18:21:04.463Z,71.20
2023-02-03T18:23:30.924Z,71.20
2023-02-03T18:25:57.396Z,71.10
2023-02-03T18:28:23.863Z,71.10
2023-02-03T18:30:50.378Z,71.10
2023-02-03T18:33:16.872Z,71.10
2023-02-03T18:35:43.330Z,71.10
2023-02-03T18:38:09.814Z,71.00
2023-02-03T18:40:36.288Z,71.00
2023-02-03T18:43:02.763Z,71.00
2023-02-03T18:45:29.202Z,71.00
2023-02-03T18:47:55.716Z,71.00
2023-02-03T18:50:22.192Z,70.90
2023-02-03T18:52:48.672Z,71.00
2023-02-03T18:55:15.157Z,71.00
2023-02-03T18:57:41.630Z,71.00
2023-02-03T19:00:12.008Z,71.00
2023-02-03T19:02:38.534Z,71.00
2023-02-03T19:05:05.049Z,71.00
2023-02-03T19:07:31.493Z,71.00
2023-02-03T19:10:00.020Z,70.90
2023-02-03T19:12:26.498Z,70.70
2023-02-03T19:14:52.986Z,70.80
2023-02-03T19:17:19.454Z,70.90
2023-02-03T19:19:45.933Z,70.90
2023-02-03T19:22:12.402Z,70.90
2023-02-03T19:24:38.887Z,70.90
2023-02-03T19:27:05.371Z,71.00
2023-02-03T19:29:31.837Z,71.00
2023-02-03T19:31:58.443Z,70.90
2023-02-03T19:34:30.051Z,71.00
2023-02-03T19:36:56.531Z,70.90
2023-02-03T19:39:23.012Z,71.00
2023-02-03T19:41:49.500Z,70.90
2023-02-03T19:44:15.981Z,70.90
2023-02-03T19:46:42.527Z,70.90
2023-02-03T19:49:09.068Z,70.90
2023-02-03T19:51:35.539Z,70.90
2023-02-03T19:54:02.007Z,70.90
2023-02-03T19:56:28.494Z,70.90
2023-02-03T19:58:54.959Z,70.90
2023-02-03T20:01:21.498Z,70.80
2023-02-03T20:03:47.998Z,70.80
2023-02-03T20:06:14.498Z,70.80
2023-02-03T20:08:40.989Z,70.80
2023-02-03T20:11:07.516Z,70.80
2023-02-03T20:13:34.019Z,70.70
2023-02-03T20:16:00.567Z,70.70
2023-02-03T20:18:27.118Z,70.70
2023-02-03T20:20:54.094Z,70.60
2023-02-03T20:23:20.564Z,70.70
2023-02-03T20:25:47.042Z,70.60
2023-02-03T20:28:13.583Z,70.70
2023-02-03T20:30:40.153Z,70.60
2023-02-03T20:33:06.628Z,70.50
2023-02-03T20:35:33.114Z,70.60
2023-02-03T20:37:59.568Z,70.60
2023-02-03T20:40:26.049Z,70.60
2023-02-03T20:42:52.517Z,70.50
2023-02-03T20:45:18.983Z,70.40
2023-02-03T20:47:45.451Z,70.50
2023-02-03T20:50:11.940Z,70.40
2023-02-03T20:52:38.407Z,70.40
2023-02-03T20:55:04.915Z,70.40
2023-02-03T20:57:31.400Z,70.40
2023-02-03T20:59:57.881Z,70.40
2023-02-03T21:02:24.378Z,70.10
2023-02-03T21:04:50.905Z,70.30
2023-02-03T21:07:17.382Z,70.30
2023-02-03T21:09:43.859Z,70.30
2023-02-03T21:12:10.351Z,70.30
2023-02-03T21:14:36.832Z,70.20
2023-02-03T21:17:03.317Z,70.20
2023-02-03T21:19:29.818Z,70.20
2023-02-03T21:21:56.299Z,70.00
2023-02-03T21:24:22.771Z,69.90
2023-02-03T21:26:49.243Z,70.00
2023-02-03T21:29:15.709Z,70.00
2023-02-03T21:31:48.200Z,70.00
2023-02-03T21:34:14.730Z,69.90
2023-02-03T21:36:41.202Z,69.90
2023-02-03T21:39:12.348Z,69.80
2023-02-03T21:41:42.160Z,69.70
2023-02-03T21:44:08.639Z,69.70
2023-02-03T21:46:35.116Z,69.70
2023-02-03T21:49:01.589Z,69.50
2023-02-03T21:51:28.008Z,69.60
2023-02-03T21:53:54.487Z,69.70
2023-02-03T21:56:20.961Z,69.60
2023-02-03T21:58:48.123Z,69.50
2023-02-03T22:01:14.590Z,69.50
2023-02-03T22:03:41.116Z,69.50
2023-02-03T22:06:12.172Z,69.40
2023-02-03T22:08:38.639Z,69.40
2023-02-03T22:11:05.101Z,69.50
2023-02-03T22:13:31.589Z,69.50
2023-02-03T22:15:58.058Z,69.40
2023-02-03T22:18:24.539Z,69.40
2023-02-03T22:20:54.205Z,69.20
2023-02-03T22:23:20.694Z,69.30
2023-02-03T22:25:47.180Z,69.20
2023-02-03T22:28:13.665Z,69.20
2023-02-03T22:30:40.228Z,69.20
2023-02-03T22:33:06.718Z,69.10
2023-02-03T22:35:33.206Z,69.10
2023-02-03T22:37:59.672Z,69.00
2023-02-03T22:40:26.144Z,68.80
2023-02-03T22:42:52.609Z,69.10
2023-02-03T22:45:19.066Z,69.00
2023-02-03T22:47:48.221Z,69.00
2023-02-03T22:50:14.934Z,69.00
2023-02-03T22:52:42.053Z,69.00
2023-02-03T22:55:08.560Z,68.90
2023-02-03T22:57:35.039Z,68.90
2023-02-03T23:00:01.549Z,68.80
2023-02-03T23:02:28.030Z,68.80
2023-02-03T23:04:54.496Z,68.80
2023-02-03T23:07:20.992Z,68.80
2023-02-03T23:09:47.461Z,68.70
2023-02-03T23:12:13.951Z,68.80
2023-02-03T23:14:40.416Z,68.70
2023-02-03T23:17:06.884Z,68.80
2023-02-03T23:19:33.354Z,68.80
2023-02-03T23:21:59.831Z,68.80
2023-02-03T23:24:26.305Z,68.70
2023-02-03T23:26:52.777Z,68.70
2023-02-03T23:29:19.239Z,68.70
2023-02-03T23:31:48.324Z,68.70
2023-02-03T23:34:14.857Z,68.70
2023-02-03T23:36:41.327Z,68.50
2023-02-03T23:39:07.808Z,68.70
2023-02-03T23:41:34.293Z,68.60
2023-02-03T23:44:00.755Z,68.60
2023-02-03T23:46:27.339Z,68.60
2023-02-03T23:48:53.846Z,68.70
2023-02-03T23:51:20.309Z,68.60
2023-02-03T23:53:46.778Z,68.60
2023-02-03T23:56:13.258Z,68.60
2023-02-03T23:58:39.729Z,68.60
